sensor_id;sensor_type;location;lat;lon;timestamp;temperature;humidity
62555;DHT22;48610;52.144;8.624;2023-02-03T00:01:05;8.40;99.90
62555;DHT22;48610;52.144;8.624;2023-02-03T00:04:06;8.50;99.90
62555;DHT22;48610;52.144;8.624;2023-02-03T00:07:09;8.40;99.90
62555;DHT22;48610;52.144;8.624;2023-02-03T00:10:10;8.40;99.90
62555;DHT22;48610;52.144;8.624;2023-02-03T00:13:11;8.40;99.90
62555;DHT22;48610;52.144;8.624;2023-02-03T00:16:12;8.40;99.90
62555;DHT22;48610;52.144;8.624;2023-02-03T00:19:12;8.50;99.90
62555;DHT22;48610;52.144;8.624;2023-02-03T00:22:13;8.50;99.90
62555;DHT22;48610;52.144;8.624;2023-02-03T00:25:13;8.50;99.90
62555;DHT22;48610;52.144;8.624;2023-02-03T00:28:14;8.60;99.90
62555;DHT22;48610;52.144;8.624;2023-02-03T00:31:19;8.50;99.90
62555;DHT22;48610;52.144;8.624;2023-02-03T00:34:20;8.50;99.90
62555;DHT22;48610;52.144;8.624;2023-02-03T00:37:24;8.50;99.90
62555;DHT22;48610;52.144;8.624;2023-02-03T00:40:25;8.50;99.90
62555;DHT22;48610;52.144;8.624;2023-02-03T00:43:26;8.50;99.90
62555;DHT22;48610;52.144;8.624;2023-02-03T00:46:27;8.50;99.90
62555;DHT22;48610;52.144;8.624;2023-02-03T00:49:29;8.50;99.90
62555;DHT22;48610;52.144;8.624;2023-02-03T00:52:29;8.50;99.90
62555;DHT22;48610;52.144;8.624;2023-02-03T00:55:30;8.50;99.90
62555;DHT22;48610;52.144;8.624;2023-02-03T00:58:30;8.40;99.90
62555;DHT22;48610;52.144;8.624;2023-02-03T01:01:31;8.50;99.90
62555;DHT22;48610;52.144;8.624;2023-02-03T01:04:32;8.50;99.90
62555;DHT22;48610;52.144;8.624;2023-02-03T01:07:32;8.50;99.90
62555;DHT22;48610;52.144;8.624;2023-02-03T01:10:33;8.50;99.90
62555;DHT22;48610;52.144;8.624;2023-02-03T01:13:33;8.50;99.90
62555;DHT22;48610;52.144;8.624;2023-02-03T01:16:34;8.50;99.90
62555;DHT22;48610;52.144;8.624;2023-02-03T01:19:37;8.50;99.90
62555;DHT22;48610;52.144;8.624;2023-02-03T01:22:38;8.50;99.90
62555;DHT22;48610;52.144;8.624;2023-02-03T01:25:38;8.50;99.90
62555;DHT22;48610;52.144;8.624;2023-02-03T01:28:39;8.50;99.90
62555;DHT22;48610;52.144;8.624;2023-02-03T01:31:41;8.50;99.90
62555;DHT22;48610;52.144;8.624;2023-02-03T01:34:41;8.50;99.90
62555;DHT22;48610;52.144;8.624;2023-02-03T01:37:42;8.50;99.90
62555;DHT22;48610;52.144;8.624;2023-02-03T01:40:43;8.60;99.90
62555;DHT22;48610;52.144;8.624;2023-02-03T01:43:46;8.60;99.90
62555;DHT22;48610;52.144;8.624;2023-02-03T01:46:48;8.50;99.90
62555;DHT22;48610;52.144;8.624;2023-02-03T01:53:15;8.50;99.90
62555;DHT22;48610;52.144;8.624;2023-02-03T01:56:16;8.60;99.90
62555;DHT22;48610;52.144;8.624;2023-02-03T01:59:18;8.50;99.90
62555;DHT22;48610;52.144;8.624;2023-02-03T02:02:20;8.50;99.90
62555;DHT22;48610;52.144;8.624;2023-02-03T02:05:35;8.60;99.90
62555;DHT22;48610;52.144;8.624;2023-02-03T02:08:40;8.70;99.90
62555;DHT22;48610;52.144;8.624;2023-02-03T02:11:41;8.60;99.90
62555;DHT22;48610;52.144;8.624;2023-02-03T02:14:43;8.60;99.90
62555;DHT22;48610;52.144;8.624;2023-02-03T02:17:55;8.60;99.90
62555;DHT22;48610;52.144;8.624;2023-02-03T02:34:51;8.60;99.90
62555;DHT22;48610;52.144;8.624;2023-02-03T02:38:21;8.60;99.90
62555;DHT22;48610;52.144;8.624;2023-02-03T02:41:46;8.70;99.90
62555;DHT22;48610;52.144;8.624;2023-02-03T02:44:55;8.70;99.90
62555;DHT22;48610;52.144;8.624;2023-02-03T02:48:04;8.60;99.90
62555;DHT22;48610;52.144;8.624;2023-02-03T02:51:08;8.60;99.90
62555;DHT22;48610;52.144;8.624;2023-02-03T02:54:17;8.70;99.90
62555;DHT22;48610;52.144;8.624;2023-02-03T02:57:20;8.70;99.90
62555;DHT22;48610;52.144;8.624;2023-02-03T03:00:23;8.60;99.90
62555;DHT22;48610;52.144;8.624;2023-02-03T03:03:23;8.60;99.90
62555;DHT22;48610;52.144;8.624;2023-02-03T03:06:46;8.60;99.90
62555;DHT22;48610;52.144;8.624;2023-02-03T03:09:57;8.60;99.90
62555;DHT22;48610;52.144;8.624;2023-02-03T03:13:06;8.60;99.90
62555;DHT22;48610;52.144;8.624;2023-02-03T03:16:09;8.60;99.90
62555;DHT22;48610;52.144;8.624;2023-02-03T03:19:14;8.60;99.90
62555;DHT22;48610;52.144;8.624;2023-02-03T03:22:19;8.60;99.90
62555;DHT22;48610;52.144;8.624;2023-02-03T03:25:36;8.70;99.90
62555;DHT22;48610;52.144;8.624;2023-02-03T03:28:50;8.70;99.90
62555;DHT22;48610;52.144;8.624;2023-02-03T03:31:52;8.60;99.90
62555;DHT22;48610;52.144;8.624;2023-02-03T03:34:54;8.60;99.90
62555;DHT22;48610;52.144;8.624;2023-02-03T03:37:58;8.70;99.90
62555;DHT22;48610;52.144;8.624;2023-02-03T03:41:11;8.70;99.90
62555;DHT22;48610;52.144;8.624;2023-02-03T03:44:15;8.70;99.90
62555;DHT22;48610;52.144;8.624;2023-02-03T03:47:26;8.70;99.90
62555;DHT22;48610;52.144;8.624;2023-02-03T03:50:32;8.70;99.90
62555;DHT22;48610;52.144;8.624;2023-02-03T03:53:34;8.70;99.90
62555;DHT22;48610;52.144;8.624;2023-02-03T03:56:57;8.70;99.90
62555;DHT22;48610;52.144;8.624;2023-02-03T04:00:02;8.70;99.90
62555;DHT22;48610;52.144;8.624;2023-02-03T04:03:11;8.70;99.90
62555;DHT22;48610;52.144;8.624;2023-02-03T04:06:13;8.70;99.90
62555;DHT22;48610;52.144;8.624;2023-02-03T04:09:14;8.70;99.90
62555;DHT22;48610;52.144;8.624;2023-02-03T04:12:22;8.70;99.90
62555;DHT22;48610;52.144;8.624;2023-02-03T04:15:23;8.70;99.90
62555;DHT22;48610;52.144;8.624;2023-02-03T04:18:23;8.70;99.90
62555;DHT22;48610;52.144;8.624;2023-02-03T04:21:24;8.70;99.90
62555;DHT22;48610;52.144;8.624;2023-02-03T04:24:24;8.70;99.90
62555;DHT22;48610;52.144;8.624;2023-02-03T04:27:26;8.80;99.90
62555;DHT22;48610;52.144;8.624;2023-02-03T04:30:27;8.70;99.90
62555;DHT22;48610;52.144;8.624;2023-02-03T04:33:27;8.70;99.90
62555;DHT22;48610;52.144;8.624;2023-02-03T04:36:28;8.70;99.90
62555;DHT22;48610;52.144;8.624;2023-02-03T04:39:28;8.80;99.90
62555;DHT22;48610;52.144;8.624;2023-02-03T04:42:29;8.80;99.90
62555;DHT22;48610;52.144;8.624;2023-02-03T04:45:29;8.80;99.90
62555;DHT22;48610;52.144;8.624;2023-02-03T04:48:30;8.80;99.90
62555;DHT22;48610;52.144;8.624;2023-02-03T04:51:30;8.80;99.90
62555;DHT22;48610;52.144;8.624;2023-02-03T04:54:31;8.70;99.90
62555;DHT22;48610;52.144;8.624;2023-02-03T04:57:31;8.70;99.90
62555;DHT22;48610;52.144;8.624;2023-02-03T05:00:32;8.80;99.90
62555;DHT22;48610;52.144;8.624;2023-02-03T05:03:32;8.80;99.90
62555;DHT22;48610;52.144;8.624;2023-02-03T05:06:33;8.80;99.90
62555;DHT22;48610;52.144;8.624;2023-02-03T05:09:34;8.70;99.90
62555;DHT22;48610;52.144;8.624;2023-02-03T05:12:34;8.80;99.90
62555;DHT22;48610;52.144;8.624;2023-02-03T05:15:35;8.80;99.90
62555;DHT22;48610;52.144;8.624;2023-02-03T05:18:35;8.70;99.90
62555;DHT22;48610;52.144;8.624;2023-02-03T05:21:36;8.70;99.90
62555;DHT22;48610;52.144;8.624;2023-02-03T05:24:37;8.80;99.90
62555;DHT22;48610;52.144;8.624;2023-02-03T05:27:38;8.80;99.90
62555;DHT22;48610;52.144;8.624;2023-02-03T05:30:39;8.80;99.90
62555;DHT22;48610;52.144;8.624;2023-02-03T05:33:40;8.80;99.90
62555;DHT22;48610;52.144;8.624;2023-02-03T05:36:40;8.80;99.90
62555;DHT22;48610;52.144;8.624;2023-02-03T05:39:41;8.80;99.90
62555;DHT22;48610;52.144;8.624;2023-02-03T05:42:50;8.80;99.90
62555;DHT22;48610;52.144;8.624;2023-02-03T05:45:51;8.80;99.90
62555;DHT22;48610;52.144;8.624;2023-02-03T05:48:52;8.80;99.90
62555;DHT22;48610;52.144;8.624;2023-02-03T05:51:53;8.80;99.90
62555;DHT22;48610;52.144;8.624;2023-02-03T05:54:54;8.80;99.90
62555;DHT22;48610;52.144;8.624;2023-02-03T05:57:55;8.80;99.90
62555;DHT22;48610;52.144;8.624;2023-02-03T06:00:56;8.80;99.90
62555;DHT22;48610;52.144;8.624;2023-02-03T06:03:56;8.80;99.90
62555;DHT22;48610;52.144;8.624;2023-02-03T06:06:57;8.70;99.90
62555;DHT22;48610;52.144;8.624;2023-02-03T06:09:57;8.70;99.90
62555;DHT22;48610;52.144;8.624;2023-02-03T06:12:58;8.60;99.90
62555;DHT22;48610;52.144;8.624;2023-02-03T06:15:59;8.60;99.90
62555;DHT22;48610;52.144;8.624;2023-02-03T06:18:59;8.50;99.90
62555;DHT22;48610;52.144;8.624;2023-02-03T06:22:01;8.40;99.90
62555;DHT22;48610;52.144;8.624;2023-02-03T06:25:03;8.40;99.90
62555;DHT22;48610;52.144;8.624;2023-02-03T06:28:04;8.40;99.90
62555;DHT22;48610;52.144;8.624;2023-02-03T06:31:05;8.40;99.90
62555;DHT22;48610;52.144;8.624;2023-02-03T06:34:05;8.30;99.90
62555;DHT22;48610;52.144;8.624;2023-02-03T06:37:06;8.40;99.90
62555;DHT22;48610;52.144;8.624;2023-02-03T06:40:07;8.30;99.90
62555;DHT22;48610;52.144;8.624;2023-02-03T06:43:08;8.40;99.90
62555;DHT22;48610;52.144;8.624;2023-02-03T06:46:08;8.40;99.90
62555;DHT22;48610;52.144;8.624;2023-02-03T06:49:09;8.30;99.90
62555;DHT22;48610;52.144;8.624;2023-02-03T06:52:09;8.30;99.90
62555;DHT22;48610;52.144;8.624;2023-02-03T06:55:10;8.30;99.90
62555;DHT22;48610;52.144;8.624;2023-02-03T06:58:11;8.40;99.90
62555;DHT22;48610;52.144;8.624;2023-02-03T07:01:11;8.30;99.90
62555;DHT22;48610;52.144;8.624;2023-02-03T07:04:12;8.30;99.90
62555;DHT22;48610;52.144;8.624;2023-02-03T07:07:12;8.30;99.90
62555;DHT22;48610;52.144;8.624;2023-02-03T07:10:13;8.30;99.90
62555;DHT22;48610;52.144;8.624;2023-02-03T07:13:14;8.40;99.90
62555;DHT22;48610;52.144;8.624;2023-02-03T07:16:14;8.30;99.90
62555;DHT22;48610;52.144;8.624;2023-02-03T07:19:15;8.30;99.90
62555;DHT22;48610;52.144;8.624;2023-02-03T07:22:15;8.30;99.90
62555;DHT22;48610;52.144;8.624;2023-02-03T07:25:16;8.40;99.90
62555;DHT22;48610;52.144;8.624;2023-02-03T07:28:16;8.50;99.90
62555;DHT22;48610;52.144;8.624;2023-02-03T07:31:17;8.50;99.90
62555;DHT22;48610;52.144;8.624;2023-02-03T07:34:18;8.50;99.90
62555;DHT22;48610;52.144;8.624;2023-02-03T07:37:18;8.50;99.90
62555;DHT22;48610;52.144;8.624;2023-02-03T07:40:19;8.50;99.90
62555;DHT22;48610;52.144;8.624;2023-02-03T07:43:20;8.50;99.90
62555;DHT22;48610;52.144;8.624;2023-02-03T07:46:20;8.60;99.90
62555;DHT22;48610;52.144;8.624;2023-02-03T07:49:21;8.60;99.90
62555;DHT22;48610;52.144;8.624;2023-02-03T07:52:21;8.60;99.90
62555;DHT22;48610;52.144;8.624;2023-02-03T07:55:22;8.60;99.90
62555;DHT22;48610;52.144;8.624;2023-02-03T07:58:22;8.50;99.90
62555;DHT22;48610;52.144;8.624;2023-02-03T08:01:24;8.60;99.90
62555;DHT22;48610;52.144;8.624;2023-02-03T08:04:25;8.60;99.90
62555;DHT22;48610;52.144;8.624;2023-02-03T08:07:26;8.50;99.90
62555;DHT22;48610;52.144;8.624;2023-02-03T08:10:26;8.50;99.90
62555;DHT22;48610;52.144;8.624;2023-02-03T08:13:27;8.60;99.90
62555;DHT22;48610;52.144;8.624;2023-02-03T08:16:28;8.60;99.90
62555;DHT22;48610;52.144;8.624;2023-02-03T08:19:28;8.60;99.90
62555;DHT22;48610;52.144;8.624;2023-02-03T08:22:29;8.70;99.90
62555;DHT22;48610;52.144;8.624;2023-02-03T08:25:30;8.60;99.90
62555;DHT22;48610;52.144;8.624;2023-02-03T08:28:31;8.60;99.90
62555;DHT22;48610;52.144;8.624;2023-02-03T08:31:32;8.60;99.90
62555;DHT22;48610;52.144;8.624;2023-02-03T08:34:32;8.60;99.90
62555;DHT22;48610;52.144;8.624;2023-02-03T08:37:33;8.70;99.90
62555;DHT22;48610;52.144;8.624;2023-02-03T08:40:34;8.80;99.90
62555;DHT22;48610;52.144;8.624;2023-02-03T08:43:34;8.80;99.90
62555;DHT22;48610;52.144;8.624;2023-02-03T08:46:35;8.80;99.90
62555;DHT22;48610;52.144;8.624;2023-02-03T08:49:42;8.80;99.90
62555;DHT22;48610;52.144;8.624;2023-02-03T08:52:43;8.80;99.90
62555;DHT22;48610;52.144;8.624;2023-02-03T08:55:43;8.80;99.90
62555;DHT22;48610;52.144;8.624;2023-02-03T08:58:44;8.80;99.90
62555;DHT22;48610;52.144;8.624;2023-02-03T09:01:45;8.80;99.90
62555;DHT22;48610;52.144;8.624;2023-02-03T09:04:47;8.80;99.90
62555;DHT22;48610;52.144;8.624;2023-02-03T09:07:49;8.90;99.90
62555;DHT22;48610;52.144;8.624;2023-02-03T09:10:50;8.90;99.90
62555;DHT22;48610;52.144;8.624;2023-02-03T09:13:50;8.90;99.90
62555;DHT22;48610;52.144;8.624;2023-02-03T09:16:51;8.90;99.90
62555;DHT22;48610;52.144;8.624;2023-02-03T09:19:51;9.00;99.90
62555;DHT22;48610;52.144;8.624;2023-02-03T09:22:52;8.90;99.90
62555;DHT22;48610;52.144;8.624;2023-02-03T09:25:54;8.90;99.90
62555;DHT22;48610;52.144;8.624;2023-02-03T09:28:54;8.80;99.90
62555;DHT22;48610;52.144;8.624;2023-02-03T09:31:55;8.90;99.90
62555;DHT22;48610;52.144;8.624;2023-02-03T09:34:56;8.90;99.90
62555;DHT22;48610;52.144;8.624;2023-02-03T09:37:57;8.80;99.90
62555;DHT22;48610;52.144;8.624;2023-02-03T09:41:21;8.80;99.90
62555;DHT22;48610;52.144;8.624;2023-02-03T09:44:54;8.80;99.90
62555;DHT22;48610;52.144;8.624;2023-02-03T09:48:11;8.90;99.90
62555;DHT22;48610;52.144;8.624;2023-02-03T09:51:34;9.00;99.90
62555;DHT22;48610;52.144;8.624;2023-02-03T09:55:06;9.00;99.90
62555;DHT22;48610;52.144;8.624;2023-02-03T09:58:15;9.00;99.90
62555;DHT22;48610;52.144;8.624;2023-02-03T10:01:19;9.00;99.90
62555;DHT22;48610;52.144;8.624;2023-02-03T10:04:37;9.00;99.90
62555;DHT22;48610;52.144;8.624;2023-02-03T10:18:05;8.90;99.90
62555;DHT22;48610;52.144;8.624;2023-02-03T10:21:21;8.90;99.90
62555;DHT22;48610;52.144;8.624;2023-02-03T10:24:46;8.80;99.90
62555;DHT22;48610;52.144;8.624;2023-02-03T10:27:54;8.80;99.90
62555;DHT22;48610;52.144;8.624;2023-02-03T10:30:57;8.80;99.90
62555;DHT22;48610;52.144;8.624;2023-02-03T10:34:10;8.80;99.90
62555;DHT22;48610;52.144;8.624;2023-02-03T10:37:22;8.80;99.90
62555;DHT22;48610;52.144;8.624;2023-02-03T10:40:25;8.80;99.90
62555;DHT22;48610;52.144;8.624;2023-02-03T10:43:28;8.90;99.90
62555;DHT22;48610;52.144;8.624;2023-02-03T10:46:50;9.00;99.90
62555;DHT22;48610;52.144;8.624;2023-02-03T10:49:52;9.00;99.90
62555;DHT22;48610;52.144;8.624;2023-02-03T10:56:35;8.80;99.90
62555;DHT22;48610;52.144;8.624;2023-02-03T10:59:42;8.80;99.90
62555;DHT22;48610;52.144;8.624;2023-02-03T11:02:43;8.80;99.90
62555;DHT22;48610;52.144;8.624;2023-02-03T11:05:44;8.80;99.90
62555;DHT22;48610;52.144;8.624;2023-02-03T11:08:47;8.70;99.90
62555;DHT22;48610;52.144;8.624;2023-02-03T11:12:04;8.60;99.90
62555;DHT22;48610;52.144;8.624;2023-02-03T11:15:05;8.60;99.90
62555;DHT22;48610;52.144;8.624;2023-02-03T11:18:37;8.70;99.90
62555;DHT22;48610;52.144;8.624;2023-02-03T11:24:40;8.70;99.90
62555;DHT22;48610;52.144;8.624;2023-02-03T11:27:42;8.70;99.90
62555;DHT22;48610;52.144;8.624;2023-02-03T11:30:43;8.80;99.90
62555;DHT22;48610;52.144;8.624;2023-02-03T11:33:49;8.80;99.90
62555;DHT22;48610;52.144;8.624;2023-02-03T11:36:50;8.80;99.90
62555;DHT22;48610;52.144;8.624;2023-02-03T11:40:39;8.80;99.90
62555;DHT22;48610;52.144;8.624;2023-02-03T11:43:16;8.80;99.90
62555;DHT22;48610;52.144;8.624;2023-02-03T11:46:17;8.90;99.90
62555;DHT22;48610;52.144;8.624;2023-02-03T12:02:56;9.10;99.90
62555;DHT22;48610;52.144;8.624;2023-02-03T12:06:23;9.10;99.90
62555;DHT22;48610;52.144;8.624;2023-02-03T12:23:10;9.30;99.90
62555;DHT22;48610;52.144;8.624;2023-02-03T12:26:27;9.30;99.90
62555;DHT22;48610;52.144;8.624;2023-02-03T12:29:32;9.30;99.90
62555;DHT22;48610;52.144;8.624;2023-02-03T12:32:46;9.30;99.90
62555;DHT22;48610;52.144;8.624;2023-02-03T12:35:52;9.40;99.90
62555;DHT22;48610;52.144;8.624;2023-02-03T12:42:33;9.50;99.90
62555;DHT22;48610;52.144;8.624;2023-02-03T12:45:37;9.50;99.90
62555;DHT22;48610;52.144;8.624;2023-02-03T12:52:25;9.50;99.90
62555;DHT22;48610;52.144;8.624;2023-02-03T12:55:45;9.50;99.90
62555;DHT22;48610;52.144;8.624;2023-02-03T12:58:50;9.50;99.90
62555;DHT22;48610;52.144;8.624;2023-02-03T13:01:59;9.50;99.90
62555;DHT22;48610;52.144;8.624;2023-02-03T13:05:13;9.50;99.90
62555;DHT22;48610;52.144;8.624;2023-02-03T13:08:21;9.60;99.90
62555;DHT22;48610;52.144;8.624;2023-02-03T13:12:09;9.60;99.90
62555;DHT22;48610;52.144;8.624;2023-02-03T13:18:25;9.50;99.90
62555;DHT22;48610;52.144;8.624;2023-02-03T13:21:28;9.50;99.90
62555;DHT22;48610;52.144;8.624;2023-02-03T13:24:29;9.50;99.90
62555;DHT22;48610;52.144;8.624;2023-02-03T13:27:41;9.50;99.90
62555;DHT22;48610;52.144;8.624;2023-02-03T13:31:10;9.50;99.90
62555;DHT22;48610;52.144;8.624;2023-02-03T13:41:42;9.50;99.90
62555;DHT22;48610;52.144;8.624;2023-02-03T13:44:47;9.50;99.90
62555;DHT22;48610;52.144;8.624;2023-02-03T13:47:53;9.50;99.90
62555;DHT22;48610;52.144;8.624;2023-02-03T13:58:28;9.50;99.90
62555;DHT22;48610;52.144;8.624;2023-02-03T14:01:33;9.40;99.90
62555;DHT22;48610;52.144;8.624;2023-02-03T14:07:37;9.50;99.90
62555;DHT22;48610;52.144;8.624;2023-02-03T14:10:38;9.50;99.90
62555;DHT22;48610;52.144;8.624;2023-02-03T14:13:39;9.50;99.90
62555;DHT22;48610;52.144;8.624;2023-02-03T14:16:40;9.40;99.90
62555;DHT22;48610;52.144;8.624;2023-02-03T14:22:52;9.30;99.90
62555;DHT22;48610;52.144;8.624;2023-02-03T14:25:59;9.40;99.90
62555;DHT22;48610;52.144;8.624;2023-02-03T14:29:00;9.20;99.90
62555;DHT22;48610;52.144;8.624;2023-02-03T14:32:07;9.20;99.90
62555;DHT22;48610;52.144;8.624;2023-02-03T14:35:23;9.20;99.90
62555;DHT22;48610;52.144;8.624;2023-02-03T14:38:30;9.10;99.90
62555;DHT22;48610;52.144;8.624;2023-02-03T14:52:14;9.20;99.90
62555;DHT22;48610;52.144;8.624;2023-02-03T14:55:33;9.10;99.90
62555;DHT22;48610;52.144;8.624;2023-02-03T14:58:48;9.10;99.90
62555;DHT22;48610;52.144;8.624;2023-02-03T15:05:33;9.10;99.90
62555;DHT22;48610;52.144;8.624;2023-02-03T15:08:35;9.10;99.90
62555;DHT22;48610;52.144;8.624;2023-02-03T15:11:44;9.10;99.90
62555;DHT22;48610;52.144;8.624;2023-02-03T15:14:46;9.10;99.90
62555;DHT22;48610;52.144;8.624;2023-02-03T15:17:47;9.10;99.90
62555;DHT22;48610;52.144;8.624;2023-02-03T15:20:53;9.10;99.90
62555;DHT22;48610;52.144;8.624;2023-02-03T15:23:53;9.10;99.90
62555;DHT22;48610;52.144;8.624;2023-02-03T15:26:55;9.00;99.90
62555;DHT22;48610;52.144;8.624;2023-02-03T15:29:56;9.00;99.90
62555;DHT22;48610;52.144;8.624;2023-02-03T15:33:05;8.90;99.90
62555;DHT22;48610;52.144;8.624;2023-02-03T15:36:22;8.80;99.90
62555;DHT22;48610;52.144;8.624;2023-02-03T15:39:46;8.80;99.90
62555;DHT22;48610;52.144;8.624;2023-02-03T15:42:58;8.80;99.90
62555;DHT22;48610;52.144;8.624;2023-02-03T15:49:20;8.70;99.90
62555;DHT22;48610;52.144;8.624;2023-02-03T15:52:23;8.70;99.90
62555;DHT22;48610;52.144;8.624;2023-02-03T15:55:39;8.60;99.90
62555;DHT22;48610;52.144;8.624;2023-02-03T15:58:44;8.50;99.90
62555;DHT22;48610;52.144;8.624;2023-02-03T16:01:45;8.50;99.90
62555;DHT22;48610;52.144;8.624;2023-02-03T16:04:49;8.50;99.90
62555;DHT22;48610;52.144;8.624;2023-02-03T16:11:35;8.50;99.90
62555;DHT22;48610;52.144;8.624;2023-02-03T16:14:36;8.40;99.90
62555;DHT22;48610;52.144;8.624;2023-02-03T16:17:37;8.40;99.90
62555;DHT22;48610;52.144;8.624;2023-02-03T16:20:48;8.50;99.90
62555;DHT22;48610;52.144;8.624;2023-02-03T16:23:50;8.40;99.90
62555;DHT22;48610;52.144;8.624;2023-02-03T16:26:51;8.40;99.90
62555;DHT22;48610;52.144;8.624;2023-02-03T16:30:23;8.40;99.90
62555;DHT22;48610;52.144;8.624;2023-02-03T16:33:48;8.50;99.90
62555;DHT22;48610;52.144;8.624;2023-02-03T16:37:12;8.50;99.90
62555;DHT22;48610;52.144;8.624;2023-02-03T16:40:38;8.40;99.90
62555;DHT22;48610;52.144;8.624;2023-02-03T16:43:57;8.40;99.90
62555;DHT22;48610;52.144;8.624;2023-02-03T16:47:30;8.40;99.90
62555;DHT22;48610;52.144;8.624;2023-02-03T16:50:50;8.30;99.90
62555;DHT22;48610;52.144;8.624;2023-02-03T16:53:55;8.30;99.90
62555;DHT22;48610;52.144;8.624;2023-02-03T16:56:55;8.30;99.90
62555;DHT22;48610;52.144;8.624;2023-02-03T17:08:03;8.30;99.90
62555;DHT22;48610;52.144;8.624;2023-02-03T17:11:13;8.30;99.90
62555;DHT22;48610;52.144;8.624;2023-02-03T17:14:15;8.30;99.90
62555;DHT22;48610;52.144;8.624;2023-02-03T17:17:15;8.30;99.90
62555;DHT22;48610;52.144;8.624;2023-02-03T17:20:16;8.20;99.90
62555;DHT22;48610;52.144;8.624;2023-02-03T17:23:16;8.20;99.90
62555;DHT22;48610;52.144;8.624;2023-02-03T17:26:17;8.20;99.90
62555;DHT22;48610;52.144;8.624;2023-02-03T17:29:18;8.20;99.90
62555;DHT22;48610;52.144;8.624;2023-02-03T17:32:18;8.20;99.90
62555;DHT22;48610;52.144;8.624;2023-02-03T17:35:19;8.10;99.90
62555;DHT22;48610;52.144;8.624;2023-02-03T17:38:19;8.20;99.90
62555;DHT22;48610;52.144;8.624;2023-02-03T17:41:21;8.20;99.90
62555;DHT22;48610;52.144;8.624;2023-02-03T17:44:22;8.20;99.90
62555;DHT22;48610;52.144;8.624;2023-02-03T17:47:23;8.20;99.90
62555;DHT22;48610;52.144;8.624;2023-02-03T17:50:23;8.20;99.90
62555;DHT22;48610;52.144;8.624;2023-02-03T17:53:24;8.20;99.90
62555;DHT22;48610;52.144;8.624;2023-02-03T17:56:25;8.20;99.90
62555;DHT22;48610;52.144;8.624;2023-02-03T17:59:26;8.30;99.90
62555;DHT22;48610;52.144;8.624;2023-02-03T18:02:26;8.20;99.90
62555;DHT22;48610;52.144;8.624;2023-02-03T18:05:27;8.20;99.90
62555;DHT22;48610;52.144;8.624;2023-02-03T18:08:28;8.20;99.90
62555;DHT22;48610;52.144;8.624;2023-02-03T18:11:30;8.10;99.90
62555;DHT22;48610;52.144;8.624;2023-02-03T18:14:31;8.10;99.90
62555;DHT22;48610;52.144;8.624;2023-02-03T18:17:32;8.10;99.90
62555;DHT22;48610;52.144;8.624;2023-02-03T18:20:32;8.10;99.90
62555;DHT22;48610;52.144;8.624;2023-02-03T18:23:34;8.00;99.90
62555;DHT22;48610;52.144;8.624;2023-02-03T18:26:46;8.10;99.90
62555;DHT22;48610;52.144;8.624;2023-02-03T18:29:47;8.10;99.90
62555;DHT22;48610;52.144;8.624;2023-02-03T18:32:51;8.10;99.90
62555;DHT22;48610;52.144;8.624;2023-02-03T18:35:56;8.00;99.90
62555;DHT22;48610;52.144;8.624;2023-02-03T18:38:57;8.10;99.90
62555;DHT22;48610;52.144;8.624;2023-02-03T18:41:58;8.10;99.90
62555;DHT22;48610;52.144;8.624;2023-02-03T18:44:58;8.00;99.90
62555;DHT22;48610;52.144;8.624;2023-02-03T18:48:02;7.90;99.90
62555;DHT22;48610;52.144;8.624;2023-02-03T18:51:05;7.90;99.90
62555;DHT22;48610;52.144;8.624;2023-02-03T18:54:06;7.90;99.90
62555;DHT22;48610;52.144;8.624;2023-02-03T18:57:07;7.90;99.90
62555;DHT22;48610;52.144;8.624;2023-02-03T19:00:13;7.90;99.90
62555;DHT22;48610;52.144;8.624;2023-02-03T19:03:14;7.90;99.90
62555;DHT22;48610;52.144;8.624;2023-02-03T19:06:14;7.90;99.90
62555;DHT22;48610;52.144;8.624;2023-02-03T19:09:15;7.90;99.90
62555;DHT22;48610;52.144;8.624;2023-02-03T19:12:18;7.90;99.90
62555;DHT22;48610;52.144;8.624;2023-02-03T19:15:18;7.90;99.90
62555;DHT22;48610;52.144;8.624;2023-02-03T19:18:19;7.80;99.90
62555;DHT22;48610;52.144;8.624;2023-02-03T19:21:20;7.80;99.90
62555;DHT22;48610;52.144;8.624;2023-02-03T19:24:20;7.80;99.90
62555;DHT22;48610;52.144;8.624;2023-02-03T19:27:21;7.80;99.90
62555;DHT22;48610;52.144;8.624;2023-02-03T19:30:22;7.80;99.90
62555;DHT22;48610;52.144;8.624;2023-02-03T19:33:22;7.80;99.90
62555;DHT22;48610;52.144;8.624;2023-02-03T19:36:23;7.70;99.90
62555;DHT22;48610;52.144;8.624;2023-02-03T19:39:23;7.70;99.90
62555;DHT22;48610;52.144;8.624;2023-02-03T19:42:24;7.70;99.90
62555;DHT22;48610;52.144;8.624;2023-02-03T19:45:25;7.70;99.90
62555;DHT22;48610;52.144;8.624;2023-02-03T19:48:26;7.60;99.90
62555;DHT22;48610;52.144;8.624;2023-02-03T19:51:26;7.60;99.90
62555;DHT22;48610;52.144;8.624;2023-02-03T19:54:27;7.60;99.90
62555;DHT22;48610;52.144;8.624;2023-02-03T19:57:28;7.60;99.90
62555;DHT22;48610;52.144;8.624;2023-02-03T20:00:28;7.60;99.90
62555;DHT22;48610;52.144;8.624;2023-02-03T20:03:29;7.50;99.90
62555;DHT22;48610;52.144;8.624;2023-02-03T20:06:29;7.50;99.90
62555;DHT22;48610;52.144;8.624;2023-02-03T20:09:31;7.50;99.90
62555;DHT22;48610;52.144;8.624;2023-02-03T20:12:31;7.50;99.90
62555;DHT22;48610;52.144;8.624;2023-02-03T20:15:32;7.60;99.90
62555;DHT22;48610;52.144;8.624;2023-02-03T20:18:32;7.50;99.90
62555;DHT22;48610;52.144;8.624;2023-02-03T20:21:33;7.40;99.90
62555;DHT22;48610;52.144;8.624;2023-02-03T20:24:33;7.40;99.90
62555;DHT22;48610;52.144;8.624;2023-02-03T20:27:34;7.40;99.90
62555;DHT22;48610;52.144;8.624;2023-02-03T20:30:35;7.40;99.90
62555;DHT22;48610;52.144;8.624;2023-02-03T20:33:36;7.30;99.90
62555;DHT22;48610;52.144;8.624;2023-02-03T20:36:36;7.30;99.90
62555;DHT22;48610;52.144;8.624;2023-02-03T20:39:37;7.30;99.90
62555;DHT22;48610;52.144;8.624;2023-02-03T20:42:38;7.40;99.90
62555;DHT22;48610;52.144;8.624;2023-02-03T20:45:39;7.30;99.90
62555;DHT22;48610;52.144;8.624;2023-02-03T20:48:40;7.30;99.90
62555;DHT22;48610;52.144;8.624;2023-02-03T20:51:40;7.30;99.90
62555;DHT22;48610;52.144;8.624;2023-02-03T20:54:41;7.30;99.90
62555;DHT22;48610;52.144;8.624;2023-02-03T20:57:42;7.30;99.90
62555;DHT22;48610;52.144;8.624;2023-02-03T21:00:43;7.30;99.90
62555;DHT22;48610;52.144;8.624;2023-02-03T21:03:45;7.40;99.90
62555;DHT22;48610;52.144;8.624;2023-02-03T21:07:12;7.40;99.90
62555;DHT22;48610;52.144;8.624;2023-02-03T21:10:19;7.50;99.90
62555;DHT22;48610;52.144;8.624;2023-02-03T21:13:24;7.40;99.90
62555;DHT22;48610;52.144;8.624;2023-02-03T21:16:34;7.50;99.90
62555;DHT22;48610;52.144;8.624;2023-02-03T21:19:34;7.50;99.90
62555;DHT22;48610;52.144;8.624;2023-02-03T21:22:35;7.60;99.90
62555;DHT22;48610;52.144;8.624;2023-02-03T21:25:35;7.60;99.90
62555;DHT22;48610;52.144;8.624;2023-02-03T21:28:36;7.60;99.90
62555;DHT22;48610;52.144;8.624;2023-02-03T21:31:38;7.60;99.90
62555;DHT22;48610;52.144;8.624;2023-02-03T21:34:42;7.60;99.90
62555;DHT22;48610;52.144;8.624;2023-02-03T21:37:42;7.50;99.90
62555;DHT22;48610;52.144;8.624;2023-02-03T21:40:43;7.50;99.90
62555;DHT22;48610;52.144;8.624;2023-02-03T21:43:45;7.50;99.90